Time;durP1;ratioP1;P1;durP2;ratioP2;P2;SDS_P1;SDS_P2;PMS_P1;PMS_P2;Temp;Humidity;BMP_temperature;BMP_pressure;BME280_temperature;BME280_humidity;BME280_pressure;Samples;Min_cycle;Max_cycle;Signal;HPM_P1;HPM_P2
2021/04/30 00:01:41;;;;;;;12.10;5.80;;;7.40;77.40;;;;;;5058749;28;20041;-69
2021/04/30 00:04:07;;;;;;;13.07;5.32;;;7.40;77.20;;;;;;5075724;28;20354;-70
2021/04/30 00:06:32;;;;;;;10.63;4.70;;;7.40;77.20;;;;;;5074233;28;20031;-70
2021/04/30 00:08:58;;;;;;;14.20;5.55;;;7.40;77.20;;;;;;5065889;28;20396;-69
2021/04/30 00:11:24;;;;;;;9.90;4.63;;;7.40;77.30;;;;;;5079107;28;20090;-70
2021/04/30 00:13:49;;;;;;;14.40;5.20;;;7.40;77.20;;;;;;5063525;28;20028;-70
2021/04/30 00:16:15;;;;;;;13.82;4.95;;;7.40;77.20;;;;;;5043660;28;20044;-70
2021/04/30 00:18:41;;;;;;;14.57;5.93;;;7.40;77.30;;;;;;5043758;28;20378;-70
2021/04/30 00:21:07;;;;;;;13.65;4.55;;;7.40;77.40;;;;;;5046153;28;20033;-70
2021/04/30 00:23:33;;;;;;;16.75;5.57;;;7.30;77.60;;;;;;5041939;28;20036;-70
2021/04/30 00:26:02;;;;;;;12.35;5.35;;;7.30;77.70;;;;;;5051527;28;20025;-70
2021/04/30 00:28:28;;;;;;;16.23;5.57;;;7.30;77.70;;;;;;5044706;28;20494;-70
2021/04/30 00:30:54;;;;;;;14.43;5.40;;;7.30;77.60;;;;;;5043977;28;20552;-70
2021/04/30 00:33:20;;;;;;;15.25;5.18;;;7.30;77.90;;;;;;5046231;28;20036;-70
2021/04/30 00:35:46;;;;;;;15.43;5.25;;;7.30;77.90;;;;;;5036754;28;20029;-69
2021/04/30 00:38:12;;;;;;;13.25;4.93;;;7.30;78.00;;;;;;5046029;28;20067;-70
2021/04/30 00:40:38;;;;;;;13.07;4.95;;;7.30;78.00;;;;;;5046553;28;20028;-69
2021/04/30 00:43:03;;;;;;;16.77;5.63;;;7.30;78.70;;;;;;5043858;28;20116;-70
2021/04/30 00:45:29;;;;;;;13.25;5.38;;;7.30;78.00;;;;;;5067317;28;20091;-70
2021/04/30 00:47:55;;;;;;;16.45;5.53;;;7.40;78.10;;;;;;5035833;28;20033;-69
2021/04/30 00:50:23;;;;;;;13.18;5.00;;;7.30;78.10;;;;;;5049082;28;20079;-70
2021/04/30 00:52:49;;;;;;;13.43;5.13;;;7.40;78.10;;;;;;5049021;28;20032;-70
2021/04/30 00:55:17;;;;;;;14.02;5.63;;;7.40;78.10;;;;;;5065767;28;20057;-69
2021/04/30 00:57:49;;;;;;;13.15;5.25;;;7.40;78.30;;;;;;5047631;28;20095;-70
2021/04/30 01:00:15;;;;;;;19.33;6.07;;;7.40;78.70;;;;;;5045278;28;20047;-70
2021/04/30 01:02:41;;;;;;;15.40;5.45;;;7.50;77.90;;;;;;5034358;28;20059;-70
2021/04/30 01:05:08;;;;;;;13.60;5.60;;;7.50;77.90;;;;;;5031866;28;20025;-70
2021/04/30 01:07:34;;;;;;;12.48;5.40;;;7.50;77.90;;;;;;5042270;28;20609;-70
2021/04/30 01:10:00;;;;;;;16.40;6.28;;;7.50;77.80;;;;;;5033380;28;20065;-70
2021/04/30 01:12:25;;;;;;;13.98;6.03;;;7.50;77.80;;;;;;5035874;28;20029;-70
2021/04/30 01:14:52;;;;;;;14.25;4.72;;;7.50;77.70;;;;;;5048129;28;20036;-70
2021/04/30 01:17:17;;;;;;;17.45;7.38;;;7.50;77.90;;;;;;5062260;28;20042;-70
2021/04/30 01:19:44;;;;;;;19.50;6.50;;;7.50;77.90;;;;;;5088521;28;20032;-70
2021/04/30 01:22:09;;;;;;;16.73;6.40;;;7.50;77.90;;;;;;5092142;28;20107;-70
2021/04/30 01:24:36;;;;;;;16.23;5.90;;;7.50;77.90;;;;;;5061747;28;20118;-70
2021/04/30 01:27:02;;;;;;;18.75;6.13;;;7.40;78.10;;;;;;5082622;28;20051;-70
2021/04/30 01:29:27;;;;;;;16.65;5.80;;;7.50;78.20;;;;;;5099009;28;20497;-70
2021/04/30 01:31:53;;;;;;;14.85;6.50;;;7.50;78.10;;;;;;5075617;28;20481;-70
2021/04/30 01:34:19;;;;;;;18.95;6.93;;;7.50;78.00;;;;;;5087337;28;20499;-70
2021/04/30 01:36:44;;;;;;;16.85;6.85;;;7.50;78.30;;;;;;5076239;28;20031;-70
2021/04/30 01:39:13;;;;;;;14.05;6.47;;;7.50;78.50;;;;;;5073690;28;20025;-70
2021/04/30 01:41:41;;;;;;;19.55;7.05;;;7.40;78.50;;;;;;5077475;28;20020;-70
2021/04/30 01:44:11;;;;;;;18.95;6.57;;;7.40;78.50;;;;;;5081832;28;20056;-70
2021/04/30 01:46:37;;;;;;;15.38;6.55;;;7.40;78.70;;;;;;5076880;28;20027;-70
2021/04/30 01:49:05;;;;;;;13.68;7.13;;;7.50;78.70;;;;;;5074048;28;20060;-69
2021/04/30 01:51:34;;;;;;;14.55;7.10;;;7.50;79.40;;;;;;5077567;28;20107;-70
2021/04/30 01:54:00;;;;;;;17.35;6.47;;;7.60;78.60;;;;;;5092356;28;20024;-70
2021/04/30 01:56:25;;;;;;;16.10;7.00;;;7.50;78.40;;;;;;5076825;28;20385;-70
2021/04/30 01:58:51;;;;;;;18.42;6.88;;;7.60;78.20;;;;;;5074681;28;20081;-70
2021/04/30 02:01:18;;;;;;;13.57;7.07;;;7.60;78.10;;;;;;5082404;28;20031;-70
2021/04/30 02:03:43;;;;;;;18.13;6.97;;;7.60;78.20;;;;;;5072591;28;20073;-70
2021/04/30 02:06:09;;;;;;;18.88;6.82;;;7.60;78.20;;;;;;5084540;28;20063;-69
2021/04/30 02:08:35;;;;;;;17.02;6.85;;;7.60;78.10;;;;;;5072671;28;20079;-70
2021/04/30 02:11:00;;;;;;;17.73;7.13;;;7.60;78.20;;;;;;5084407;28;20028;-70
2021/04/30 02:13:26;;;;;;;16.25;6.93;;;7.60;78.10;;;;;;5091633;28;20028;-69
2021/04/30 02:15:53;;;;;;;17.95;8.05;;;7.60;78.20;;;;;;5067569;28;20024;-70
2021/04/30 02:18:20;;;;;;;16.17;7.15;;;7.70;78.30;;;;;;5078031;28;20481;-70
2021/04/30 02:20:45;;;;;;;15.02;6.97;;;7.70;78.50;;;;;;5061726;28;20032;-69
2021/04/30 02:23:12;;;;;;;12.02;6.88;;;7.70;78.50;;;;;;5072412;28;20496;-70
2021/04/30 02:25:38;;;;;;;14.90;7.88;;;7.70;78.40;;;;;;5061228;28;20032;-70
2021/04/30 02:28:04;;;;;;;15.73;7.43;;;7.70;78.50;;;;;;5081665;28;20059;-70
2021/04/30 02:30:32;;;;;;;20.67;7.57;;;7.70;78.60;;;;;;5059104;28;20103;-70
2021/04/30 02:32:58;;;;;;;15.60;7.60;;;7.70;78.80;;;;;;5082177;28;20028;-70
2021/04/30 02:35:32;;;;;;;19.83;7.03;;;7.80;78.90;;;;;;5056745;28;20086;-70
2021/04/30 02:37:59;;;;;;;14.65;7.95;;;7.80;78.80;;;;;;5096957;28;20110;-70
2021/04/30 02:40:27;;;;;;;13.88;6.13;;;7.80;78.50;;;;;;5072370;28;20044;-70
2021/04/30 02:42:58;;;;;;;15.75;7.00;;;7.80;78.40;;;;;;5078604;28;20116;-69
2021/04/30 02:45:24;;;;;;;19.90;6.78;;;7.90;78.30;;;;;;5058003;28;20032;-70
2021/04/30 02:47:51;;;;;;;15.25;7.63;;;7.90;78.30;;;;;;5061525;28;20495;-69
2021/04/30 02:50:23;;;;;;;11.95;6.13;;;7.80;78.20;;;;;;5094566;28;20051;-70
2021/04/30 02:52:50;;;;;;;9.73;6.80;;;7.90;78.10;;;;;;5089134;28;20062;-70
2021/04/30 02:55:20;;;;;;;12.30;7.03;;;7.90;78.00;;;;;;5089667;28;20465;-69
2021/04/30 02:57:49;;;;;;;22.33;7.05;;;7.90;78.10;;;;;;5077812;28;20024;-69
2021/04/30 03:00:16;;;;;;;16.60;7.60;;;7.90;78.30;;;;;;5093927;28;20061;-70
2021/04/30 03:02:41;;;;;;;19.35;7.57;;;7.90;78.50;;;;;;5088146;28;20406;-69
2021/04/30 03:05:08;;;;;;;16.92;7.72;;;7.90;78.60;;;;;;5087589;28;20032;-70
2021/04/30 03:07:33;;;;;;;19.48;7.88;;;7.90;79.00;;;;;;5077541;28;20021;-70
2021/04/30 03:09:59;;;;;;;19.38;8.25;;;7.80;79.50;;;;;;5069438;28;20039;-70
2021/04/30 03:12:25;;;;;;;16.30;7.97;;;7.80;79.60;;;;;;5070144;28;20032;-70
2021/04/30 03:14:50;;;;;;;15.38;9.50;;;7.80;79.90;;;;;;5087795;28;20039;-70
2021/04/30 03:17:16;;;;;;;13.52;8.55;;;7.70;80.10;;;;;;5086035;28;20055;-70
2021/04/30 03:19:41;;;;;;;19.67;9.07;;;7.70;80.40;;;;;;5072934;28;20040;-70
2021/04/30 03:22:07;;;;;;;15.95;8.77;;;7.70;80.60;;;;;;5075671;28;20115;-70
2021/04/30 03:24:33;;;;;;;21.48;10.20;;;7.70;80.70;;;;;;5064390;28;20165;-70
2021/04/30 03:26:58;;;;;;;14.50;9.85;;;7.70;80.70;;;;;;5073259;28;20032;-70
2021/04/30 03:29:24;;;;;;;17.13;9.38;;;7.60;80.90;;;;;;5071426;28;20107;-70
2021/04/30 03:31:49;;;;;;;15.07;10.52;;;7.60;80.80;;;;;;5076800;28;20376;-70
2021/04/30 03:34:15;;;;;;;19.30;11.20;;;7.60;80.90;;;;;;5089163;28;20036;-70
2021/04/30 03:36:41;;;;;;;18.35;11.10;;;7.60;81.10;;;;;;5081655;28;20029;-70
2021/04/30 03:39:08;;;;;;;20.33;11.15;;;7.60;81.10;;;;;;5086577;28;20086;-70
2021/04/30 03:41:34;;;;;;;20.35;11.05;;;7.60;80.90;;;;;;5074533;28;20036;-70
2021/04/30 03:44:01;;;;;;;17.20;12.13;;;7.60;80.70;;;;;;5082285;28;20017;-70
2021/04/30 03:46:26;;;;;;;19.70;11.55;;;7.60;80.60;;;;;;5083205;28;20024;-70
2021/04/30 03:48:52;;;;;;;20.10;12.65;;;7.60;80.70;;;;;;5056710;28;20070;-70
2021/04/30 03:51:18;;;;;;;16.23;12.00;;;7.60;80.90;;;;;;5077702;28;20051;-69
2021/04/30 03:53:44;;;;;;;16.73;11.77;;;7.60;80.90;;;;;;5077890;28;20071;-70
2021/04/30 03:56:10;;;;;;;23.85;13.13;;;7.70;81.10;;;;;;5085399;28;20048;-70
2021/04/30 03:58:36;;;;;;;19.73;12.43;;;7.60;81.00;;;;;;5057236;28;20082;-70
2021/04/30 04:01:01;;;;;;;18.95;12.60;;;7.60;80.90;;;;;;5086696;28;20039;-70
2021/04/30 04:03:27;;;;;;;17.95;13.75;;;7.60;80.80;;;;;;5078421;28;20492;-70
2021/04/30 04:05:53;;;;;;;19.67;13.00;;;7.60;80.80;;;;;;5057899;28;20033;-70
2021/04/30 04:08:18;;;;;;;19.75;13.60;;;7.60;80.70;;;;;;5057960;28;20055;-70
2021/04/30 04:10:44;;;;;;;21.25;13.73;;;7.60;80.70;;;;;;5071970;28;20111;-70
2021/04/30 04:13:24;;;;;;;21.05;14.10;;;7.50;80.60;;;;;;5086919;28;20034;-70
2021/04/30 04:15:51;;;;;;;22.80;13.75;;;7.60;80.90;;;;;;5082633;28;20028;-70
2021/04/30 04:18:18;;;;;;;24.90;14.85;;;7.50;80.50;;;;;;5075667;28;20021;-70
2021/04/30 04:20:44;;;;;;;21.67;14.32;;;7.50;80.40;;;;;;5089099;28;20354;-70
2021/04/30 04:23:10;;;;;;;18.45;13.30;;;7.50;80.40;;;;;;5078760;28;20053;-70
2021/04/30 04:25:37;;;;;;;18.67;13.48;;;7.50;80.50;;;;;;5090190;28;20032;-70
2021/04/30 04:28:03;;;;;;;22.90;14.20;;;7.50;80.90;;;;;;5062589;28;20032;-70
2021/04/30 04:30:29;;;;;;;19.25;14.30;;;7.60;80.70;;;;;;5076593;28;20547;-70
2021/04/30 04:32:54;;;;;;;23.75;14.90;;;7.60;81.40;;;;;;5066091;28;20032;-70
2021/04/30 04:35:21;;;;;;;22.17;13.48;;;7.60;80.60;;;;;;5087562;28;20039;-70
2021/04/30 04:37:47;;;;;;;31.75;16.17;;;7.60;80.60;;;;;;5087191;28;20024;-70
2021/04/30 04:40:15;;;;;;;28.67;13.85;;;7.60;80.60;;;;;;5061957;28;20032;-70
2021/04/30 04:42:42;;;;;;;18.45;13.70;;;7.60;80.40;;;;;;5083901;28;20029;-70
2021/04/30 04:45:09;;;;;;;19.67;14.07;;;7.60;80.20;;;;;;5077598;28;20037;-70
2021/04/30 04:47:34;;;;;;;26.50;13.43;;;7.60;80.20;;;;;;5084660;28;20043;-70
2021/04/30 04:50:00;;;;;;;22.83;14.57;;;7.60;80.20;;;;;;5091120;28;20036;-70
2021/04/30 04:52:26;;;;;;;20.67;13.98;;;7.60;80.10;;;;;;5092674;28;20038;-70
2021/04/30 04:54:51;;;;;;;22.08;13.68;;;7.50;80.00;;;;;;5062392;28;20040;-70
2021/04/30 04:57:17;;;;;;;25.20;15.18;;;7.60;80.10;;;;;;5055356;28;20477;-70
2021/04/30 04:59:43;;;;;;;21.27;14.38;;;7.60;80.20;;;;;;5079063;28;20028;-70
2021/04/30 05:02:08;;;;;;;21.55;14.55;;;7.60;80.30;;;;;;5093293;28;20103;-70
2021/04/30 05:04:34;;;;;;;21.90;15.00;;;7.60;80.20;;;;;;5085281;28;20070;-70
2021/04/30 05:07:00;;;;;;;22.17;14.45;;;7.60;80.30;;;;;;5073040;28;20465;-71
2021/04/30 05:09:28;;;;;;;25.00;13.77;;;7.60;80.30;;;;;;5075312;28;20028;-70
2021/04/30 05:11:54;;;;;;;28.73;14.40;;;7.70;80.30;;;;;;5075576;28;20059;-70
2021/04/30 05:14:20;;;;;;;18.75;13.40;;;7.60;80.10;;;;;;5064707;28;20377;-70
2021/04/30 05:16:46;;;;;;;22.73;14.45;;;7.60;80.10;;;;;;5064104;28;20041;-70
2021/04/30 05:19:11;;;;;;;21.90;14.82;;;7.70;80.20;;;;;;5056365;28;20036;-70
2021/04/30 05:21:40;;;;;;;20.67;14.23;;;7.70;80.10;;;;;;5067135;28;20032;-70
2021/04/30 05:24:07;;;;;;;20.45;13.88;;;7.70;80.00;;;;;;5063615;28;20048;-70
2021/04/30 05:26:33;;;;;;;21.50;13.07;;;7.70;80.00;;;;;;5067526;28;20047;-70
2021/04/30 05:28:59;;;;;;;25.30;14.95;;;7.70;80.00;;;;;;5067483;28;20478;-70
2021/04/30 05:31:25;;;;;;;22.27;13.32;;;7.80;79.80;;;;;;5062820;28;20485;-70
2021/04/30 05:33:51;;;;;;;26.17;13.85;;;7.80;79.60;;;;;;5060622;28;20029;-70
2021/04/30 05:36:17;;;;;;;20.63;13.52;;;7.80;79.50;;;;;;5067547;28;20465;-70
2021/04/30 05:38:44;;;;;;;21.83;13.77;;;7.90;79.50;;;;;;5071901;28;20029;-70
2021/04/30 05:41:10;;;;;;;24.30;13.80;;;7.90;79.40;;;;;;5065273;28;20563;-70
2021/04/30 05:43:35;;;;;;;25.33;13.60;;;7.90;79.30;;;;;;5061619;28;20050;-70
2021/04/30 05:46:01;;;;;;;26.40;14.95;;;7.90;79.30;;;;;;5070935;28;20036;-70
2021/04/30 05:48:26;;;;;;;20.27;13.00;;;7.90;79.30;;;;;;5057791;28;20033;-70
2021/04/30 05:50:52;;;;;;;24.17;14.00;;;8.00;79.50;;;;;;5052320;28;20390;-71
2021/04/30 05:53:18;;;;;;;20.65;15.13;;;8.00;79.40;;;;;;5069605;28;20095;-69
2021/04/30 05:55:43;;;;;;;23.52;15.02;;;8.00;79.20;;;;;;5052531;28;20052;-70
2021/04/30 05:58:09;;;;;;;24.80;15.07;;;8.00;79.10;;;;;;5056410;28;20029;-70
2021/04/30 06:00:35;;;;;;;25.98;14.63;;;8.00;78.90;;;;;;5052303;28;20041;-70
2021/04/30 06:03:00;;;;;;;22.50;14.48;;;8.00;78.80;;;;;;5061835;28;20034;-70
2021/04/30 06:05:26;;;;;;;21.05;13.70;;;8.00;78.90;;;;;;5071189;28;20028;-70
2021/04/30 06:07:51;;;;;;;24.35;15.18;;;8.00;78.90;;;;;;5062965;28;20083;-70
2021/04/30 06:10:17;;;;;;;19.15;13.75;;;7.90;78.80;;;;;;5050844;28;20036;-71
2021/04/30 06:12:43;;;;;;;19.58;13.98;;;8.00;78.80;;;;;;5089334;28;20579;-70
2021/04/30 06:15:09;;;;;;;22.45;15.10;;;8.00;78.80;;;;;;5072461;28;20048;-70
2021/04/30 06:17:34;;;;;;;19.60;14.02;;;8.00;78.80;;;;;;5066905;28;20128;-70
2021/04/30 06:20:00;;;;;;;23.45;15.40;;;8.00;78.80;;;;;;5095271;28;20475;-70
2021/04/30 06:22:26;;;;;;;27.25;15.00;;;8.00;78.90;;;;;;5073975;28;20029;-70
2021/04/30 06:24:51;;;;;;;22.70;14.63;;;8.00;78.90;;;;;;5061058;28;20078;-70
2021/04/30 06:27:17;;;;;;;25.23;14.95;;;8.00;78.90;;;;;;5056698;28;20040;-70
2021/04/30 06:29:43;;;;;;;22.30;14.23;;;8.00;78.80;;;;;;5065365;28;20040;-69
2021/04/30 06:32:08;;;;;;;23.00;14.25;;;8.10;78.80;;;;;;5070702;28;20036;-69
2021/04/30 06:34:34;;;;;;;28.63;14.38;;;8.10;78.60;;;;;;5075357;28;20032;-70
2021/04/30 06:37:00;;;;;;;22.05;14.82;;;8.20;78.40;;;;;;5061570;28;20017;-70
2021/04/30 06:39:26;;;;;;;25.08;14.70;;;8.20;78.20;;;;;;5072268;28;20029;-70
2021/04/30 06:41:52;;;;;;;27.67;15.20;;;8.20;78.10;;;;;;5072963;28;20032;-70
2021/04/30 06:44:17;;;;;;;20.90;14.70;;;8.20;78.20;;;;;;5074835;28;20065;-70
2021/04/30 06:46:43;;;;;;;27.65;14.10;;;8.20;78.00;;;;;;5075781;28;20024;-70
2021/04/30 06:49:09;;;;;;;32.83;16.88;;;8.20;77.90;;;;;;5074056;28;20039;-70
2021/04/30 06:51:35;;;;;;;26.55;15.40;;;8.20;78.00;;;;;;5061819;28;20497;-70
2021/04/30 06:54:01;;;;;;;29.65;16.08;;;8.20;78.00;;;;;;5063582;28;20524;-70
2021/04/30 06:56:30;;;;;;;30.30;16.05;;;8.20;78.10;;;;;;5075202;28;20393;-70
2021/04/30 06:58:57;;;;;;;27.70;15.65;;;8.20;78.40;;;;;;5073367;28;20126;-70
2021/04/30 07:01:23;;;;;;;25.70;16.00;;;8.20;78.60;;;;;;5073352;28;20035;-70
2021/04/30 07:03:49;;;;;;;29.33;15.60;;;8.20;78.80;;;;;;5074077;28;20036;-70
2021/04/30 07:06:15;;;;;;;28.13;16.27;;;8.30;78.90;;;;;;5074646;28;20068;-70
2021/04/30 07:08:41;;;;;;;27.35;17.00;;;8.20;78.80;;;;;;5061943;28;20043;-70
2021/04/30 07:11:07;;;;;;;30.85;15.63;;;8.30;78.70;;;;;;5074602;28;20108;-70
2021/04/30 07:13:35;;;;;;;30.33;16.77;;;8.30;78.80;;;;;;5075342;28;20470;-70
2021/04/30 07:16:01;;;;;;;24.00;16.55;;;8.30;78.70;;;;;;5062868;28;20020;-70
2021/04/30 07:18:27;;;;;;;30.65;16.35;;;8.40;78.80;;;;;;5073506;28;20099;-70
2021/04/30 07:20:53;;;;;;;29.45;17.00;;;8.40;78.80;;;;;;5035259;28;20021;-70
2021/04/30 07:23:18;;;;;;;23.80;15.98;;;8.40;79.00;;;;;;5052764;28;20474;-70
2021/04/30 07:25:44;;;;;;;27.35;15.63;;;8.40;78.70;;;;;;5039725;28;20108;-70
2021/04/30 07:28:10;;;;;;;29.73;16.85;;;8.50;78.50;;;;;;5036494;28;20022;-70
2021/04/30 07:30:35;;;;;;;27.00;15.38;;;8.50;78.30;;;;;;5044478;28;20497;-70
2021/04/30 07:33:01;;;;;;;35.03;16.83;;;8.60;78.30;;;;;;5036131;28;20091;-70
2021/04/30 07:35:26;;;;;;;29.17;17.08;;;8.60;78.20;;;;;;5045255;28;20025;-70
2021/04/30 07:37:52;;;;;;;25.92;16.17;;;8.70;78.20;;;;;;5053459;28;20021;-70
2021/04/30 07:40:18;;;;;;;28.30;16.48;;;8.70;78.00;;;;;;5054219;28;20021;-70
2021/04/30 07:42:43;;;;;;;29.20;16.23;;;8.70;77.90;;;;;;5054763;28;20425;-70
2021/04/30 07:45:10;;;;;;;24.98;15.05;;;8.70;78.00;;;;;;5048616;28;20045;-70
2021/04/30 07:47:35;;;;;;;21.20;15.30;;;8.70;77.90;;;;;;5053919;28;20029;-69
2021/04/30 07:50:01;;;;;;;27.63;16.05;;;8.70;77.80;;;;;;5036415;28;20029;-70
2021/04/30 07:52:27;;;;;;;19.95;14.57;;;8.80;77.70;;;;;;5035428;28;20124;-70
2021/04/30 07:54:52;;;;;;;22.17;15.68;;;8.80;77.60;;;;;;5033464;28;20104;-70
2021/04/30 07:57:18;;;;;;;28.08;16.05;;;8.90;77.70;;;;;;5034547;28;20104;-70
2021/04/30 07:59:44;;;;;;;31.58;16.35;;;9.00;77.50;;;;;;5054150;28;20057;-70
2021/04/30 08:02:10;;;;;;;22.90;14.80;;;9.00;77.50;;;;;;5054412;28;20033;-70
2021/04/30 08:04:36;;;;;;;24.35;15.45;;;9.00;77.10;;;;;;5038482;28;20071;-70
2021/04/30 08:07:01;;;;;;;25.67;16.20;;;9.10;77.20;;;;;;5037983;28;20438;-70
2021/04/30 08:09:27;;;;;;;32.47;16.30;;;9.10;77.20;;;;;;5051282;28;20094;-70
2021/04/30 08:11:53;;;;;;;25.10;15.48;;;9.20;77.20;;;;;;5045005;28;20037;-70
2021/04/30 08:14:18;;;;;;;23.27;15.55;;;9.20;77.00;;;;;;5054114;28;20052;-70
2021/04/30 08:16:44;;;;;;;30.88;16.20;;;9.30;76.80;;;;;;5044780;28;20530;-70
2021/04/30 08:19:09;;;;;;;27.70;16.77;;;9.30;76.70;;;;;;5093287;28;20385;-70
2021/04/30 08:21:36;;;;;;;24.45;15.88;;;9.30;76.60;;;;;;5091850;28;20043;-70
2021/04/30 08:24:02;;;;;;;20.52;15.82;;;9.30;76.60;;;;;;5075906;28;20028;-70
2021/04/30 08:26:28;;;;;;;29.67;17.08;;;9.40;76.70;;;;;;5078057;28;20029;-70
2021/04/30 08:28:53;;;;;;;28.52;16.45;;;9.50;76.70;;;;;;5073720;28;20031;-70
2021/04/30 08:31:23;;;;;;;29.90;16.42;;;9.60;76.60;;;;;;5065256;28;20032;-70
2021/04/30 08:33:50;;;;;;;30.60;16.92;;;9.60;76.30;;;;;;5073145;28;20546;-70
2021/04/30 08:36:16;;;;;;;24.00;15.23;;;9.70;75.90;;;;;;5089475;28;20032;-70
2021/04/30 08:38:43;;;;;;;28.83;16.25;;;9.70;75.60;;;;;;5084085;28;20031;-69
2021/04/30 08:41:08;;;;;;;22.80;15.40;;;9.80;75.50;;;;;;5091295;28;20020;-70
2021/04/30 08:43:37;;;;;;;30.35;17.90;;;9.90;75.30;;;;;;5077944;28;20111;-70
2021/04/30 08:46:04;;;;;;;33.33;16.23;;;9.90;75.10;;;;;;5075849;28;20146;-70
2021/04/30 08:48:32;;;;;;;28.40;16.73;;;9.90;75.00;;;;;;5075627;28;20020;-70
2021/04/30 08:50:58;;;;;;;28.58;16.83;;;9.90;74.90;;;;;;5077517;28;20020;-70
2021/04/30 08:53:24;;;;;;;30.80;17.27;;;10.00;74.90;;;;;;5090306;28;20101;-70
2021/04/30 08:55:51;;;;;;;25.33;16.35;;;10.00;75.10;;;;;;5075198;28;20032;-70
2021/04/30 08:58:25;;;;;;;27.50;17.08;;;10.00;75.20;;;;;;5092739;28;20020;-70
2021/04/30 09:00:52;;;;;;;30.95;16.75;;;10.10;75.50;;;;;;5093239;28;20032;-70
2021/04/30 09:03:17;;;;;;;25.38;15.98;;;10.10;75.40;;;;;;5073152;28;20070;-70
2021/04/30 09:05:48;;;;;;;23.58;16.10;;;10.20;75.40;;;;;;5088731;28;20033;-70
2021/04/30 09:08:16;;;;;;;24.02;16.02;;;10.20;75.20;;;;;;5096599;28;20023;-70
2021/04/30 09:10:47;;;;;;;30.30;17.97;;;10.20;75.30;;;;;;5107126;28;20415;-70
2021/04/30 09:13:16;;;;;;;29.35;17.15;;;10.20;75.40;;;;;;5096324;28;20353;-69
2021/04/30 09:15:44;;;;;;;27.17;17.10;;;10.20;75.40;;;;;;5087558;28;20033;-70
2021/04/30 09:18:26;;;;;;;31.30;17.42;;;10.20;75.60;;;;;;5092734;28;20040;-70
2021/04/30 09:20:54;;;;;;;26.17;17.50;;;10.30;75.70;;;;;;5093264;28;20057;-73
2021/04/30 09:23:35;;;;;;;21.77;15.73;;;10.30;75.60;;;;;;5076485;28;20019;-71
2021/04/30 09:26:20;;;;;;;24.52;15.30;;;10.30;75.40;;;;;;5087209;28;20044;-70
2021/04/30 09:28:58;;;;;;;29.33;17.95;;;10.40;75.10;;;;;;5087410;28;20103;-71
2021/04/30 09:31:44;;;;;;;26.77;16.60;;;10.50;75.10;;;;;;5074701;28;20444;-71
2021/04/30 09:34:16;;;;;;;26.48;16.40;;;10.60;74.30;;;;;;5072981;28;20159;-70
2021/04/30 09:36:57;;;;;;;26.48;15.93;;;10.50;74.60;;;;;;5073035;28;20028;-71
2021/04/30 09:39:22;;;;;;;23.38;15.05;;;10.60;74.40;;;;;;5080732;28;20157;-71
2021/04/30 09:42:11;;;;;;;21.83;13.52;;;10.70;74.30;;;;;;5092907;28;20107;-71
2021/04/30 09:44:41;;;;;;;20.20;13.98;;;10.80;73.80;;;;;;5071513;28;20035;-71
2021/04/30 09:47:22;;;;;;;24.45;13.85;;;10.90;73.80;;;;;;5092840;28;20392;-70
2021/04/30 09:49:53;;;;;;;22.83;13.93;;;10.90;73.60;;;;;;5069759;28;20058;-71
2021/04/30 09:52:21;;;;;;;31.55;14.65;;;11.00;73.50;;;;;;5091107;28;20037;-70
2021/04/30 09:54:47;;;;;;;24.38;14.10;;;11.10;73.50;;;;;;5072883;28;20024;-71
2021/04/30 09:57:20;;;;;;;25.70;13.80;;;11.20;73.20;;;;;;5078140;28;20122;-70
2021/04/30 10:00:10;;;;;;;21.55;13.52;;;11.50;72.80;;;;;;5096042;28;20024;-71
2021/04/30 10:02:37;;;;;;;23.88;13.52;;;11.80;71.80;;;;;;5078439;28;20370;-70
2021/04/30 10:05:17;;;;;;;22.30;12.10;;;12.00;71.00;;;;;;5073676;28;20074;-71
2021/04/30 10:07:44;;;;;;;21.63;12.68;;;12.10;70.40;;;;;;5082587;28;20032;-71
2021/04/30 10:10:24;;;;;;;26.27;12.40;;;12.20;69.90;;;;;;5079899;28;20414;-71
2021/04/30 10:12:59;;;;;;;23.92;13.13;;;12.30;69.60;;;;;;5099317;28;20477;-71
2021/04/30 10:15:27;;;;;;;25.90;12.05;;;12.50;69.20;;;;;;5091040;28;20032;-71
2021/04/30 10:17:57;;;;;;;32.30;14.27;;;12.60;68.70;;;;;;5096037;28;20392;-71
2021/04/30 10:20:23;;;;;;;25.45;13.80;;;12.50;67.90;;;;;;5095327;28;20028;-71
2021/04/30 10:22:49;;;;;;;30.95;14.65;;;12.50;68.30;;;;;;5085007;28;20032;-71
2021/04/30 10:25:18;;;;;;;30.17;15.38;;;12.40;67.90;;;;;;5076131;28;20059;-71
2021/04/30 10:27:46;;;;;;;24.17;14.38;;;12.20;68.40;;;;;;5082039;28;20024;-71
2021/04/30 10:30:30;;;;;;;24.60;14.10;;;12.20;68.80;;;;;;5095957;28;20136;-71
2021/04/30 10:33:08;;;;;;;28.73;13.52;;;12.30;69.30;;;;;;5085775;28;20287;-71
2021/04/30 10:35:51;;;;;;;32.35;14.05;;;12.50;68.50;;;;;;5087152;28;20062;-71
2021/04/30 10:38:20;;;;;;;25.33;13.00;;;12.70;68.30;;;;;;5094867;28;20052;-71
2021/04/30 10:41:05;;;;;;;27.80;13.18;;;12.80;67.90;;;;;;5095118;28;20469;-71
2021/04/30 10:43:33;;;;;;;23.30;12.82;;;12.90;66.80;;;;;;5057737;28;20367;-71
2021/04/30 10:46:01;;;;;;;23.75;12.63;;;12.90;66.80;;;;;;5103105;28;20032;-71
2021/04/30 10:48:27;;;;;;;29.80;13.80;;;12.90;66.90;;;;;;5075684;28;20440;-71
2021/04/30 10:51:12;;;;;;;25.65;14.48;;;13.00;66.30;;;;;;5077224;28;20032;-71
2021/04/30 10:53:37;;;;;;;30.35;12.75;;;13.10;66.00;;;;;;5077940;28;20381;-71
2021/04/30 10:56:27;;;;;;;33.47;14.75;;;13.10;65.40;;;;;;5063057;28;20029;-71
2021/04/30 10:58:53;;;;;;;32.90;14.55;;;13.10;64.90;;;;;;5079495;28;20085;-71
2021/04/30 11:01:25;;;;;;;23.67;13.00;;;12.90;64.00;;;;;;5081255;28;20542;-71
2021/04/30 11:04:14;;;;;;;24.25;14.00;;;12.80;65.20;;;;;;5084293;28;20085;-71
2021/04/30 11:06:39;;;;;;;;;;;12.70;65.50;;;;;;5069480;28;20437;-71
2021/04/30 11:09:10;;;;;;;29.75;14.25;;;12.70;65.90;;;;;;5084134;28;19969;-71
2021/04/30 11:11:38;;;;;;;25.63;14.52;;;12.70;65.90;;;;;;5084456;28;20863;-71
2021/04/30 11:14:21;;;;;;;32.17;17.58;;;12.70;65.70;;;;;;5077120;28;20067;-71
2021/04/30 11:16:48;;;;;;;33.20;14.60;;;12.70;65.30;;;;;;5074596;28;20020;-71
2021/04/30 11:19:16;;;;;;;26.15;14.20;;;12.80;65.50;;;;;;5095049;28;20150;-71
2021/04/30 11:21:51;;;;;;;25.63;14.13;;;12.80;65.10;;;;;;5096935;28;20055;-71
2021/04/30 11:24:28;;;;;;;25.98;13.73;;;12.80;64.80;;;;;;5087606;28;20158;-71
2021/04/30 11:27:21;;;;;;;29.25;14.07;;;12.90;65.10;;;;;;5089865;28;20031;-71
2021/04/30 11:29:47;;;;;;;28.75;14.02;;;12.90;64.70;;;;;;5085305;28;20107;-71
2021/04/30 11:32:31;;;;;;;33.55;14.88;;;12.90;64.90;;;;;;5094920;28;20132;-71
2021/04/30 11:34:58;;;;;;;29.45;14.43;;;13.00;64.70;;;;;;5083150;28;20036;-72
2021/04/30 11:37:27;;;;;;;26.05;14.38;;;13.10;64.50;;;;;;5074703;28;20025;-73
2021/04/30 11:39:54;;;;;;;23.60;13.68;;;13.20;64.30;;;;;;5088856;28;20031;-71
2021/04/30 11:42:26;;;;;;;22.83;12.95;;;13.30;64.00;;;;;;5069060;28;20040;-73
2021/04/30 11:44:52;;;;;;;26.60;13.55;;;13.50;63.50;;;;;;5083461;28;20048;-74
2021/04/30 11:47:18;;;;;;;28.50;14.88;;;13.70;63.00;;;;;;5076714;28;20023;-74
2021/04/30 11:49:44;;;;;;;28.42;14.00;;;13.90;62.10;;;;;;5092948;28;20073;-74
2021/04/30 11:52:12;;;;;;;20.75;13.50;;;14.10;61.80;;;;;;5076476;28;20107;-75
2021/04/30 11:54:39;;;;;;;23.33;13.05;;;14.30;61.00;;;;;;5080393;28;20051;-74
2021/04/30 11:57:06;;;;;;;24.58;13.93;;;14.50;60.60;;;;;;5064034;28;20404;-73
2021/04/30 11:59:31;;;;;;;31.58;14.35;;;14.80;60.00;;;;;;5091171;28;20017;-73
2021/04/30 12:02:05;;;;;;;27.67;13.25;;;15.30;59.30;;;;;;5081543;28;20377;-74
2021/04/30 12:04:41;;;;;;;26.08;13.00;;;15.70;58.30;;;;;;5100028;28;20032;-74
2021/04/30 12:07:08;;;;;;;24.70;13.07;;;16.00;57.20;;;;;;5083301;28;20028;-74
2021/04/30 12:09:34;;;;;;;25.88;13.68;;;16.20;56.40;;;;;;5075601;28;20031;-74
2021/04/30 12:12:18;;;;;;;24.67;14.55;;;16.30;55.80;;;;;;5083554;28;20058;-73
2021/04/30 12:15:06;;;;;;;23.05;13.05;;;16.60;55.40;;;;;;5083519;28;20648;-73
2021/04/30 12:17:39;;;;;;;25.92;13.43;;;17.00;54.40;;;;;;5078410;28;20512;-73
2021/04/30 12:20:23;;;;;;;21.55;13.80;;;17.40;53.20;;;;;;5093694;28;20036;-74
2021/04/30 12:23:03;;;;;;;22.30;12.63;;;17.70;51.90;;;;;;5073854;28;20032;-73
2021/04/30 12:25:32;;;;;;;24.75;13.73;;;17.70;51.00;;;;;;5073864;28;20025;-73
2021/04/30 12:28:17;;;;;;;;;;;17.40;51.60;;;;;;5087843;28;20028;-74
2021/04/30 12:30:45;;;;;;;20.45;12.77;;;17.10;52.40;;;;;;5090167;28;19915;-74
2021/04/30 12:33:32;;;;;;;24.05;13.48;;;16.70;53.10;;;;;;5075480;28;20032;-74
2021/04/30 12:36:09;;;;;;;19.63;12.40;;;16.50;53.70;;;;;;5087242;28;20757;-80
2021/04/30 12:38:38;;;;;;;20.95;12.73;;;16.20;54.00;;;;;;5090461;28;20036;-80
2021/04/30 12:41:22;;;;;;;23.55;13.00;;;16.10;54.20;;;;;;5090317;28;20038;-79
2021/04/30 12:43:50;;;;;;;22.83;13.80;;;16.10;53.80;;;;;;5072336;28;20032;-80